sensor_id;sensor_type;location;lat;lon;timestamp;pressure;altitude;pressure_sealevel;temperature;humidity
58243;BME280;50118;53.232;8.252;2022-11-04T00:01:53;99738.75;;;10.68;100.00
58243;BME280;50118;53.232;8.252;2022-11-04T00:04:21;99732.88;;;10.80;100.00
58243;BME280;50118;53.232;8.252;2022-11-04T00:06:47;99709.63;;;10.66;100.00
58243;BME280;50118;53.232;8.252;2022-11-04T00:09:21;99723.13;;;10.64;100.00
58243;BME280;50118;53.232;8.252;2022-11-04T00:11:47;99715.97;;;10.57;100.00
58243;BME280;50118;53.232;8.252;2022-11-04T00:14:32;99703.34;;;10.51;100.00
58243;BME280;50118;53.232;8.252;2022-11-04T00:16:58;99712.66;;;10.55;100.00
58243;BME280;50118;53.232;8.252;2022-11-04T00:19:42;99699.66;;;10.60;100.00
58243;BME280;50118;53.232;8.252;2022-11-04T00:22:26;99704.00;;;10.61;100.00
58243;BME280;50118;53.232;8.252;2022-11-04T00:25:11;99700.16;;;10.55;100.00
58243;BME280;50118;53.232;8.252;2022-11-04T00:28:03;99704.34;;;10.50;100.00
58243;BME280;50118;53.232;8.252;2022-11-04T00:30:47;99697.84;;;10.52;100.00
58243;BME280;50118;53.232;8.252;2022-11-04T00:33:13;99683.00;;;10.66;100.00
58243;BME280;50118;53.232;8.252;2022-11-04T00:35:52;99694.31;;;10.60;100.00
58243;BME280;50118;53.232;8.252;2022-11-04T00:38:18;99693.84;;;10.56;100.00
58243;BME280;50118;53.232;8.252;2022-11-04T00:40:44;99694.66;;;10.57;100.00
58243;BME280;50118;53.232;8.252;2022-11-04T00:43:09;99708.50;;;10.52;100.00
58243;BME280;50118;53.232;8.252;2022-11-04T00:45:35;99718.31;;;10.52;100.00
58243;BME280;50118;53.232;8.252;2022-11-04T00:48:00;99724.66;;;10.51;100.00
58243;BME280;50118;53.232;8.252;2022-11-04T00:50:26;99715.66;;;10.43;100.00
58243;BME280;50118;53.232;8.252;2022-11-04T00:52:57;99719.00;;;10.45;100.00
58243;BME280;50118;53.232;8.252;2022-11-04T00:55:23;99707.81;;;10.58;100.00
58243;BME280;50118;53.232;8.252;2022-11-04T00:57:48;99705.31;;;10.57;100.00
58243;BME280;50118;53.232;8.252;2022-11-04T01:00:14;99721.78;;;10.60;100.00
58243;BME280;50118;53.232;8.252;2022-11-04T01:02:39;99728.94;;;10.68;100.00
58243;BME280;50118;53.232;8.252;2022-11-04T01:05:05;99716.94;;;10.64;100.00
58243;BME280;50118;53.232;8.252;2022-11-04T01:07:30;99710.63;;;10.65;100.00
58243;BME280;50118;53.232;8.252;2022-11-04T01:09:56;99720.13;;;10.68;100.00
58243;BME280;50118;53.232;8.252;2022-11-04T01:12:21;99709.66;;;10.58;100.00
58243;BME280;50118;53.232;8.252;2022-11-04T01:14:46;99713.84;;;10.52;100.00
58243;BME280;50118;53.232;8.252;2022-11-04T01:17:14;99710.28;;;10.68;100.00
58243;BME280;50118;53.232;8.252;2022-11-04T01:19:39;99707.63;;;10.68;100.00
58243;BME280;50118;53.232;8.252;2022-11-04T01:22:05;99700.28;;;10.70;100.00
58243;BME280;50118;53.232;8.252;2022-11-04T01:24:30;99700.78;;;10.74;100.00
58243;BME280;50118;53.232;8.252;2022-11-04T01:26:55;99690.81;;;10.68;100.00
58243;BME280;50118;53.232;8.252;2022-11-04T01:29:21;99682.16;;;10.65;100.00
58243;BME280;50118;53.232;8.252;2022-11-04T01:31:46;99681.97;;;10.75;100.00
58243;BME280;50118;53.232;8.252;2022-11-04T01:34:11;99678.66;;;10.73;100.00
58243;BME280;50118;53.232;8.252;2022-11-04T01:36:37;99686.94;;;10.78;100.00
58243;BME280;50118;53.232;8.252;2022-11-04T01:39:02;99690.94;;;10.74;100.00
58243;BME280;50118;53.232;8.252;2022-11-04T01:41:30;99682.91;;;10.91;100.00
58243;BME280;50118;53.232;8.252;2022-11-04T01:44:01;99692.06;;;10.88;100.00
58243;BME280;50118;53.232;8.252;2022-11-04T01:49:00;99694.56;;;10.90;100.00
58243;BME280;50118;53.232;8.252;2022-11-04T01:51:28;99698.56;;;10.86;100.00
58243;BME280;50118;53.232;8.252;2022-11-04T01:53:56;99692.59;;;10.83;100.00
58243;BME280;50118;53.232;8.252;2022-11-04T01:56:22;99687.63;;;10.72;100.00
58243;BME280;50118;53.232;8.252;2022-11-04T01:58:52;99690.94;;;10.74;100.00
58243;BME280;50118;53.232;8.252;2022-11-04T02:01:19;99676.31;;;10.70;100.00
58243;BME280;50118;53.232;8.252;2022-11-04T02:03:52;99664.69;;;10.71;100.00
58243;BME280;50118;53.232;8.252;2022-11-04T02:06:19;99674.34;;;10.64;100.00
58243;BME280;50118;53.232;8.252;2022-11-04T02:08:46;99680.34;;;10.58;100.00
58243;BME280;50118;53.232;8.252;2022-11-04T02:11:12;99686.84;;;10.55;100.00
58243;BME280;50118;53.232;8.252;2022-11-04T02:13:58;99678.69;;;10.57;100.00
58243;BME280;50118;53.232;8.252;2022-11-04T02:16:42;99671.72;;;10.56;100.00
58243;BME280;50118;53.232;8.252;2022-11-04T02:24:46;99682.84;;;10.59;100.00
58243;BME280;50118;53.232;8.252;2022-11-04T02:27:33;99687.22;;;10.52;100.00
58243;BME280;50118;53.232;8.252;2022-11-04T02:30:12;99695.38;;;10.51;100.00
58243;BME280;50118;53.232;8.252;2022-11-04T02:40:50;99738.47;;;10.38;100.00
58243;BME280;50118;53.232;8.252;2022-11-04T02:43:46;99741.28;;;10.36;100.00
58243;BME280;50118;53.232;8.252;2022-11-04T02:49:17;99761.41;;;10.22;100.00
58243;BME280;50118;53.232;8.252;2022-11-04T02:52:07;99762.06;;;10.16;100.00
58243;BME280;50118;53.232;8.252;2022-11-04T02:54:40;99769.72;;;10.19;100.00
58243;BME280;50118;53.232;8.252;2022-11-04T02:57:11;99767.56;;;10.23;100.00
58243;BME280;50118;53.232;8.252;2022-11-04T02:59:46;99783.50;;;10.15;100.00
58243;BME280;50118;53.232;8.252;2022-11-04T03:02:17;99781.38;;;10.10;100.00
58243;BME280;50118;53.232;8.252;2022-11-04T03:04:45;99780.53;;;10.01;100.00
58243;BME280;50118;53.232;8.252;2022-11-04T03:07:16;99774.19;;;9.94;100.00
58243;BME280;50118;53.232;8.252;2022-11-04T03:09:49;99780.50;;;9.85;100.00
58243;BME280;50118;53.232;8.252;2022-11-04T03:12:19;99780.69;;;9.91;100.00
58243;BME280;50118;53.232;8.252;2022-11-04T03:14:51;99787.66;;;9.93;100.00
58243;BME280;50118;53.232;8.252;2022-11-04T03:17:22;99783.50;;;9.90;100.00
58243;BME280;50118;53.232;8.252;2022-11-04T03:22:19;99805.09;;;9.87;100.00
58243;BME280;50118;53.232;8.252;2022-11-04T03:24:46;99796.47;;;9.85;100.00
58243;BME280;50118;53.232;8.252;2022-11-04T03:30:09;99816.75;;;9.78;100.00
58243;BME280;50118;53.232;8.252;2022-11-04T03:35:10;99835.00;;;9.72;100.00
58243;BME280;50118;53.232;8.252;2022-11-04T03:37:36;99833.34;;;9.71;100.00
58243;BME280;50118;53.232;8.252;2022-11-04T03:40:03;99829.69;;;9.72;100.00
58243;BME280;50118;53.232;8.252;2022-11-04T03:42:35;99829.19;;;9.69;100.00
58243;BME280;50118;53.232;8.252;2022-11-04T03:45:02;99835.63;;;9.66;100.00
58243;BME280;50118;53.232;8.252;2022-11-04T03:47:29;99837.78;;;9.63;100.00
58243;BME280;50118;53.232;8.252;2022-11-04T03:50:19;99840.66;;;9.69;100.00
58243;BME280;50118;53.232;8.252;2022-11-04T03:52:48;99836.28;;;9.60;100.00
58243;BME280;50118;53.232;8.252;2022-11-04T03:55:14;99845.97;;;9.69;100.00
58243;BME280;50118;53.232;8.252;2022-11-04T04:04:29;99858.78;;;9.74;100.00
58243;BME280;50118;53.232;8.252;2022-11-04T04:07:17;99878.19;;;9.66;100.00
58243;BME280;50118;53.232;8.252;2022-11-04T04:09:54;99877.88;;;9.69;100.00
58243;BME280;50118;53.232;8.252;2022-11-04T04:12:32;99884.50;;;9.65;100.00
58243;BME280;50118;53.232;8.252;2022-11-04T04:15:21;99899.78;;;9.63;100.00
58243;BME280;50118;53.232;8.252;2022-11-04T04:17:58;99897.94;;;9.56;100.00
58243;BME280;50118;53.232;8.252;2022-11-04T04:20:27;99902.56;;;9.53;100.00
58243;BME280;50118;53.232;8.252;2022-11-04T04:22:58;99895.72;;;9.51;100.00
58243;BME280;50118;53.232;8.252;2022-11-04T04:25:27;99902.22;;;9.57;100.00
58243;BME280;50118;53.232;8.252;2022-11-04T04:28:15;99931.81;;;9.53;100.00
58243;BME280;50118;53.232;8.252;2022-11-04T04:30:42;99936.78;;;9.57;100.00
58243;BME280;50118;53.232;8.252;2022-11-04T04:33:11;99923.16;;;9.51;100.00
58243;BME280;50118;53.232;8.252;2022-11-04T04:35:51;99916.69;;;9.54;100.00
58243;BME280;50118;53.232;8.252;2022-11-04T04:38:25;99927.31;;;9.54;100.00
58243;BME280;50118;53.232;8.252;2022-11-04T04:41:25;99930.59;;;9.48;100.00
58243;BME280;50118;53.232;8.252;2022-11-04T04:44:19;99921.75;;;9.39;100.00
58243;BME280;50118;53.232;8.252;2022-11-04T04:47:06;99928.97;;;9.47;100.00
58243;BME280;50118;53.232;8.252;2022-11-04T04:49:32;99942.72;;;9.42;100.00
58243;BME280;50118;53.232;8.252;2022-11-04T04:52:01;99948.50;;;9.38;100.00
58243;BME280;50118;53.232;8.252;2022-11-04T04:54:27;99951.81;;;9.40;100.00
58243;BME280;50118;53.232;8.252;2022-11-04T04:56:52;99949.88;;;9.42;100.00
58243;BME280;50118;53.232;8.252;2022-11-04T04:59:18;99954.31;;;9.41;100.00
58243;BME280;50118;53.232;8.252;2022-11-04T05:01:43;99949.53;;;9.45;100.00
58243;BME280;50118;53.232;8.252;2022-11-04T05:04:09;99946.50;;;9.40;100.00
58243;BME280;50118;53.232;8.252;2022-11-04T05:06:34;99947.22;;;9.50;100.00
58243;BME280;50118;53.232;8.252;2022-11-04T05:09:00;99949.22;;;9.48;100.00
58243;BME280;50118;53.232;8.252;2022-11-04T05:11:25;99954.84;;;9.45;100.00
58243;BME280;50118;53.232;8.252;2022-11-04T05:13:50;99956.78;;;9.34;100.00
58243;BME280;50118;53.232;8.252;2022-11-04T05:16:16;99949.66;;;9.35;100.00
58243;BME280;50118;53.232;8.252;2022-11-04T05:18:41;99955.13;;;9.33;100.00
58243;BME280;50118;53.232;8.252;2022-11-04T05:21:11;99957.25;;;9.30;100.00
58243;BME280;50118;53.232;8.252;2022-11-04T05:23:39;99960.75;;;9.30;100.00
58243;BME280;50118;53.232;8.252;2022-11-04T05:26:04;99961.72;;;9.29;100.00
58243;BME280;50118;53.232;8.252;2022-11-04T05:28:30;99964.00;;;9.24;100.00
58243;BME280;50118;53.232;8.252;2022-11-04T05:30:56;99961.34;;;9.24;100.00
58243;BME280;50118;53.232;8.252;2022-11-04T05:33:21;99967.97;;;9.20;100.00
58243;BME280;50118;53.232;8.252;2022-11-04T05:35:47;99974.97;;;9.21;100.00
58243;BME280;50118;53.232;8.252;2022-11-04T05:38:12;99968.59;;;9.14;100.00
58243;BME280;50118;53.232;8.252;2022-11-04T05:40:37;99975.28;;;9.18;100.00
58243;BME280;50118;53.232;8.252;2022-11-04T05:43:03;99979.28;;;9.22;100.00
58243;BME280;50118;53.232;8.252;2022-11-04T05:45:28;99988.56;;;9.18;100.00
58243;BME280;50118;53.232;8.252;2022-11-04T05:48:01;99992.34;;;9.15;100.00
58243;BME280;50118;53.232;8.252;2022-11-04T05:50:28;100005.47;;;9.17;100.00
58243;BME280;50118;53.232;8.252;2022-11-04T05:52:58;99998.81;;;9.13;100.00
58243;BME280;50118;53.232;8.252;2022-11-04T05:55:24;100006.31;;;9.18;100.00
58243;BME280;50118;53.232;8.252;2022-11-04T05:57:50;100019.22;;;9.12;100.00
58243;BME280;50118;53.232;8.252;2022-11-04T06:00:16;100016.75;;;9.11;100.00
58243;BME280;50118;53.232;8.252;2022-11-04T06:02:41;100015.75;;;9.12;100.00
58243;BME280;50118;53.232;8.252;2022-11-04T06:05:07;100026.50;;;9.10;100.00
58243;BME280;50118;53.232;8.252;2022-11-04T06:07:32;100036.31;;;9.10;100.00
58243;BME280;50118;53.232;8.252;2022-11-04T06:09:58;100044.66;;;9.15;100.00
58243;BME280;50118;53.232;8.252;2022-11-04T06:12:24;100049.69;;;9.18;100.00
58243;BME280;50118;53.232;8.252;2022-11-04T06:14:50;100044.38;;;9.18;100.00
58243;BME280;50118;53.232;8.252;2022-11-04T06:17:19;100045.72;;;9.22;100.00
58243;BME280;50118;53.232;8.252;2022-11-04T06:19:45;100058.56;;;9.27;100.00
58243;BME280;50118;53.232;8.252;2022-11-04T06:22:12;100056.66;;;9.19;100.00
58243;BME280;50118;53.232;8.252;2022-11-04T06:24:37;100055.91;;;9.09;100.00
58243;BME280;50118;53.232;8.252;2022-11-04T06:27:03;100063.13;;;9.16;100.00
58243;BME280;50118;53.232;8.252;2022-11-04T06:29:29;100062.75;;;9.11;100.00
58243;BME280;50118;53.232;8.252;2022-11-04T06:31:54;100058.63;;;9.17;100.00
58243;BME280;50118;53.232;8.252;2022-11-04T06:34:19;100064.63;;;9.19;100.00
58243;BME280;50118;53.232;8.252;2022-11-04T06:36:45;100079.34;;;9.13;100.00
58243;BME280;50118;53.232;8.252;2022-11-04T06:39:10;100075.19;;;9.11;100.00
58243;BME280;50118;53.232;8.252;2022-11-04T06:41:36;100075.34;;;9.09;100.00
58243;BME280;50118;53.232;8.252;2022-11-04T06:44:01;100083.53;;;9.16;100.00
58243;BME280;50118;53.232;8.252;2022-11-04T06:46:34;100088.94;;;9.06;100.00
58243;BME280;50118;53.232;8.252;2022-11-04T06:49:01;100096.03;;;9.06;100.00
58243;BME280;50118;53.232;8.252;2022-11-04T06:51:28;100098.69;;;9.06;100.00
58243;BME280;50118;53.232;8.252;2022-11-04T06:53:53;100096.75;;;9.08;100.00
58243;BME280;50118;53.232;8.252;2022-11-04T06:56:19;100109.56;;;9.12;100.00
58243;BME280;50118;53.232;8.252;2022-11-04T06:58:48;100112.31;;;9.03;100.00
58243;BME280;50118;53.232;8.252;2022-11-04T07:01:15;100131.13;;;9.09;100.00
58243;BME280;50118;53.232;8.252;2022-11-04T07:03:41;100139.78;;;9.11;100.00
58243;BME280;50118;53.232;8.252;2022-11-04T07:06:07;100145.41;;;9.08;100.00
58243;BME280;50118;53.232;8.252;2022-11-04T07:08:33;100138.34;;;9.17;100.00
58243;BME280;50118;53.232;8.252;2022-11-04T07:10:58;100153.41;;;9.26;100.00
58243;BME280;50118;53.232;8.252;2022-11-04T07:13:24;100164.47;;;9.22;100.00
58243;BME280;50118;53.232;8.252;2022-11-04T07:15:49;100169.03;;;9.29;100.00
58243;BME280;50118;53.232;8.252;2022-11-04T07:18:15;100174.66;;;9.26;100.00
58243;BME280;50118;53.232;8.252;2022-11-04T07:20:40;100190.81;;;9.33;100.00
58243;BME280;50118;53.232;8.252;2022-11-04T07:23:05;100188.38;;;9.40;100.00
58243;BME280;50118;53.232;8.252;2022-11-04T07:25:31;100198.03;;;9.41;100.00
58243;BME280;50118;53.232;8.252;2022-11-04T07:27:56;100195.78;;;9.46;100.00
58243;BME280;50118;53.232;8.252;2022-11-04T07:30:22;100195.09;;;9.44;100.00
58243;BME280;50118;53.232;8.252;2022-11-04T07:32:47;100203.06;;;9.44;100.00
58243;BME280;50118;53.232;8.252;2022-11-04T07:35:13;100206.69;;;9.43;100.00
58243;BME280;50118;53.232;8.252;2022-11-04T07:37:39;100198.56;;;9.44;100.00
58243;BME280;50118;53.232;8.252;2022-11-04T07:40:05;100212.03;;;9.43;100.00
58243;BME280;50118;53.232;8.252;2022-11-04T07:42:31;100209.81;;;9.56;100.00
58243;BME280;50118;53.232;8.252;2022-11-04T07:44:56;100212.09;;;9.51;100.00
58243;BME280;50118;53.232;8.252;2022-11-04T07:47:22;100229.59;;;9.53;100.00
58243;BME280;50118;53.232;8.252;2022-11-04T07:49:47;100221.91;;;9.68;100.00
58243;BME280;50118;53.232;8.252;2022-11-04T07:52:12;100234.22;;;9.69;100.00
58243;BME280;50118;53.232;8.252;2022-11-04T07:54:38;100240.91;;;9.73;100.00
58243;BME280;50118;53.232;8.252;2022-11-04T07:57:03;100232.91;;;9.73;100.00
58243;BME280;50118;53.232;8.252;2022-11-04T07:59:29;100239.78;;;9.76;100.00
58243;BME280;50118;53.232;8.252;2022-11-04T08:01:54;100248.41;;;9.60;100.00
58243;BME280;50118;53.232;8.252;2022-11-04T08:04:19;100239.09;;;9.74;100.00
58243;BME280;50118;53.232;8.252;2022-11-04T08:06:45;100246.44;;;9.80;100.00
58243;BME280;50118;53.232;8.252;2022-11-04T08:09:10;100248.28;;;9.80;100.00
58243;BME280;50118;53.232;8.252;2022-11-04T08:11:36;100248.97;;;9.82;100.00
58243;BME280;50118;53.232;8.252;2022-11-04T08:14:02;100256.34;;;9.88;100.00
58243;BME280;50118;53.232;8.252;2022-11-04T08:16:28;100253.16;;;9.84;100.00
58243;BME280;50118;53.232;8.252;2022-11-04T08:18:54;100246.53;;;9.70;100.00
58243;BME280;50118;53.232;8.252;2022-11-04T08:21:26;100250.72;;;9.73;100.00
58243;BME280;50118;53.232;8.252;2022-11-04T08:23:52;100251.47;;;9.65;100.00
58243;BME280;50118;53.232;8.252;2022-11-04T08:26:19;100261.59;;;9.80;100.00
58243;BME280;50118;53.232;8.252;2022-11-04T08:28:45;100269.13;;;9.84;100.00
58243;BME280;50118;53.232;8.252;2022-11-04T08:31:16;100262.50;;;9.70;100.00
58243;BME280;50118;53.232;8.252;2022-11-04T08:33:43;100261.97;;;9.85;100.00
58243;BME280;50118;53.232;8.252;2022-11-04T08:36:17;100263.91;;;10.01;100.00
58243;BME280;50118;53.232;8.252;2022-11-04T08:38:43;100267.19;;;10.13;100.00
58243;BME280;50118;53.232;8.252;2022-11-04T08:41:10;100271.50;;;10.32;100.00
58243;BME280;50118;53.232;8.252;2022-11-04T08:43:36;100271.72;;;10.38;100.00
58243;BME280;50118;53.232;8.252;2022-11-04T08:46:04;100278.34;;;10.52;100.00
58243;BME280;50118;53.232;8.252;2022-11-04T08:48:30;100279.16;;;10.53;100.00
58243;BME280;50118;53.232;8.252;2022-11-04T08:50:57;100284.59;;;10.43;100.00
58243;BME280;50118;53.232;8.252;2022-11-04T08:53:24;100284.19;;;10.56;100.00
58243;BME280;50118;53.232;8.252;2022-11-04T08:55:49;100283.81;;;10.51;100.00
58243;BME280;50118;53.232;8.252;2022-11-04T08:58:16;100294.00;;;10.55;100.00
58243;BME280;50118;53.232;8.252;2022-11-04T09:00:42;100291.69;;;10.60;100.00
58243;BME280;50118;53.232;8.252;2022-11-04T09:03:07;100305.16;;;10.59;100.00
58243;BME280;50118;53.232;8.252;2022-11-04T09:05:35;100303.84;;;10.89;100.00
58243;BME280;50118;53.232;8.252;2022-11-04T09:08:05;100307.03;;;10.93;100.00
58243;BME280;50118;53.232;8.252;2022-11-04T09:10:31;100300.66;;;11.12;100.00
58243;BME280;50118;53.232;8.252;2022-11-04T09:12:56;100295.44;;;11.02;100.00
58243;BME280;50118;53.232;8.252;2022-11-04T09:15:21;100297.25;;;11.36;100.00
58243;BME280;50118;53.232;8.252;2022-11-04T09:17:47;100299.28;;;11.08;100.00
58243;BME280;50118;53.232;8.252;2022-11-04T09:20:12;100309.03;;;11.17;100.00
58243;BME280;50118;53.232;8.252;2022-11-04T09:22:38;100302.44;;;11.03;100.00
58243;BME280;50118;53.232;8.252;2022-11-04T09:25:03;100320.66;;;11.16;100.00
58243;BME280;50118;53.232;8.252;2022-11-04T09:27:29;100317.78;;;11.09;100.00
58243;BME280;50118;53.232;8.252;2022-11-04T09:29:54;100320.16;;;11.12;100.00
58243;BME280;50118;53.232;8.252;2022-11-04T09:32:20;100337.69;;;10.89;100.00
58243;BME280;50118;53.232;8.252;2022-11-04T09:34:45;100347.00;;;10.84;100.00
58243;BME280;50118;53.232;8.252;2022-11-04T09:37:11;100351.75;;;10.81;100.00
58243;BME280;50118;53.232;8.252;2022-11-04T09:39:37;100351.66;;;10.91;100.00
58243;BME280;50118;53.232;8.252;2022-11-04T09:47:07;100360.53;;;11.26;100.00
58243;BME280;50118;53.232;8.252;2022-11-04T09:49:36;100369.66;;;11.57;100.00
58243;BME280;50118;53.232;8.252;2022-11-04T09:55:09;100370.56;;;12.33;96.25
58243;BME280;50118;53.232;8.252;2022-11-04T09:57:37;100375.22;;;12.48;95.35
58243;BME280;50118;53.232;8.252;2022-11-04T10:00:04;100380.25;;;12.76;93.46
58243;BME280;50118;53.232;8.252;2022-11-04T10:03:11;100376.56;;;12.93;92.20
58243;BME280;50118;53.232;8.252;2022-11-04T10:16:50;100371.16;;;11.94;97.78
58243;BME280;50118;53.232;8.252;2022-11-04T10:25:39;100365.59;;;11.88;99.34
58243;BME280;50118;53.232;8.252;2022-11-04T10:28:14;100368.31;;;11.53;100.00
58243;BME280;50118;53.232;8.252;2022-11-04T10:30:43;100373.03;;;11.59;100.00
58243;BME280;50118;53.232;8.252;2022-11-04T10:33:22;100377.13;;;11.46;100.00
58243;BME280;50118;53.232;8.252;2022-11-04T10:36:15;100376.69;;;11.58;100.00
58243;BME280;50118;53.232;8.252;2022-11-04T10:43:44;100384.41;;;11.78;100.00
58243;BME280;50118;53.232;8.252;2022-11-04T10:46:25;100397.84;;;11.94;100.00
58243;BME280;50118;53.232;8.252;2022-11-04T10:51:43;100406.47;;;11.88;99.43
58243;BME280;50118;53.232;8.252;2022-11-04T10:54:40;100415.75;;;11.76;100.00
58243;BME280;50118;53.232;8.252;2022-11-04T10:57:07;100413.75;;;11.78;99.33
58243;BME280;50118;53.232;8.252;2022-11-04T11:00:01;100429.56;;;11.98;99.97
58243;BME280;50118;53.232;8.252;2022-11-04T11:03:32;100413.22;;;12.01;99.15
58243;BME280;50118;53.232;8.252;2022-11-04T11:05:35;100423.72;;;11.94;98.46
58243;BME280;50118;53.232;8.252;2022-11-04T11:08:41;100426.13;;;12.22;97.93
58243;BME280;50118;53.232;8.252;2022-11-04T11:11:07;100423.97;;;12.33;96.10
58243;BME280;50118;53.232;8.252;2022-11-04T11:13:51;100424.28;;;12.30;95.23
58243;BME280;50118;53.232;8.252;2022-11-04T11:16:25;100409.97;;;12.48;94.60
58243;BME280;50118;53.232;8.252;2022-11-04T11:24:48;100440.03;;;12.66;92.13
58243;BME280;50118;53.232;8.252;2022-11-04T11:27:14;100436.03;;;12.87;92.32
58243;BME280;50118;53.232;8.252;2022-11-04T11:29:46;100452.66;;;13.55;87.70
58243;BME280;50118;53.232;8.252;2022-11-04T11:32:32;100452.50;;;13.56;86.55
58243;BME280;50118;53.232;8.252;2022-11-04T11:35:01;100469.09;;;13.27;89.33
58243;BME280;50118;53.232;8.252;2022-11-04T11:37:28;100464.09;;;13.07;88.89
58243;BME280;50118;53.232;8.252;2022-11-04T11:39:57;100464.78;;;13.01;89.26
58243;BME280;50118;53.232;8.252;2022-11-04T11:42:32;100461.75;;;12.55;89.82
58243;BME280;50118;53.232;8.252;2022-11-04T11:44:58;100460.38;;;12.43;91.31
58243;BME280;50118;53.232;8.252;2022-11-04T11:47:50;100467.09;;;12.63;92.47
58243;BME280;50118;53.232;8.252;2022-11-04T11:50:29;100471.59;;;13.12;87.67
58243;BME280;50118;53.232;8.252;2022-11-04T11:53:18;100467.09;;;13.13;86.23
58243;BME280;50118;53.232;8.252;2022-11-04T11:56:35;100470.78;;;13.03;87.40
58243;BME280;50118;53.232;8.252;2022-11-04T12:11:32;100481.84;;;12.17;93.47
58243;BME280;50118;53.232;8.252;2022-11-04T12:14:23;100482.97;;;11.71;96.90
58243;BME280;50118;53.232;8.252;2022-11-04T12:19:58;100480.63;;;12.03;95.71
58243;BME280;50118;53.232;8.252;2022-11-04T12:37:08;100481.75;;;12.43;93.35
58243;BME280;50118;53.232;8.252;2022-11-04T12:40:02;100474.75;;;12.50;92.32
58243;BME280;50118;53.232;8.252;2022-11-04T12:42:46;100474.78;;;12.66;94.01
58243;BME280;50118;53.232;8.252;2022-11-04T12:45:30;100484.44;;;12.59;93.53
58243;BME280;50118;53.232;8.252;2022-11-04T12:48:06;100488.78;;;12.52;93.42
58243;BME280;50118;53.232;8.252;2022-11-04T12:53:24;100495.66;;;12.04;94.05
58243;BME280;50118;53.232;8.252;2022-11-04T12:56:06;100500.66;;;11.99;94.26
58243;BME280;50118;53.232;8.252;2022-11-04T13:01:22;100501.19;;;11.84;96.35
58243;BME280;50118;53.232;8.252;2022-11-04T13:06:41;100502.34;;;12.08;96.68
58243;BME280;50118;53.232;8.252;2022-11-04T13:12:50;100506.16;;;12.64;92.11
58243;BME280;50118;53.232;8.252;2022-11-04T13:15:26;100509.16;;;12.53;90.55
58243;BME280;50118;53.232;8.252;2022-11-04T13:18:17;100504.00;;;12.51;91.07
58243;BME280;50118;53.232;8.252;2022-11-04T13:21:03;100501.81;;;12.55;89.47
58243;BME280;50118;53.232;8.252;2022-11-04T13:23:42;100494.09;;;12.36;91.36
58243;BME280;50118;53.232;8.252;2022-11-04T13:26:13;100503.06;;;12.26;91.56
58243;BME280;50118;53.232;8.252;2022-11-04T13:28:41;100504.38;;;12.14;94.05
58243;BME280;50118;53.232;8.252;2022-11-04T13:37:18;100507.72;;;12.16;91.17
58243;BME280;50118;53.232;8.252;2022-11-04T13:40:19;100504.53;;;12.12;90.64
58243;BME280;50118;53.232;8.252;2022-11-04T13:45:54;100509.72;;;12.14;90.45
58243;BME280;50118;53.232;8.252;2022-11-04T13:48:25;100508.66;;;12.07;91.31
58243;BME280;50118;53.232;8.252;2022-11-04T13:51:06;100524.00;;;12.05;92.10
58243;BME280;50118;53.232;8.252;2022-11-04T13:56:35;100535.38;;;12.07;90.92
58243;BME280;50118;53.232;8.252;2022-11-04T13:59:28;100537.88;;;12.08;91.90
58243;BME280;50118;53.232;8.252;2022-11-04T14:04:50;100551.72;;;12.04;90.11
58243;BME280;50118;53.232;8.252;2022-11-04T14:07:16;100549.00;;;11.95;90.55
58243;BME280;50118;53.232;8.252;2022-11-04T14:15:57;100572.22;;;11.77;92.77
58243;BME280;50118;53.232;8.252;2022-11-04T14:18:25;100574.09;;;11.58;93.11
58243;BME280;50118;53.232;8.252;2022-11-04T14:21:11;100579.72;;;11.55;93.25
58243;BME280;50118;53.232;8.252;2022-11-04T14:23:39;100586.44;;;11.59;93.82
58243;BME280;50118;53.232;8.252;2022-11-04T14:26:11;100572.81;;;11.45;93.36
58243;BME280;50118;53.232;8.252;2022-11-04T14:28:40;100586.91;;;11.37;94.66
58243;BME280;50118;53.232;8.252;2022-11-04T14:31:09;100588.16;;;11.25;96.29
58243;BME280;50118;53.232;8.252;2022-11-04T14:33:53;100588.56;;;11.12;95.48
58243;BME280;50118;53.232;8.252;2022-11-04T14:42:14;100605.94;;;10.70;98.96
58243;BME280;50118;53.232;8.252;2022-11-04T14:44:56;100611.56;;;10.67;99.59
58243;BME280;50118;53.232;8.252;2022-11-04T14:47:41;100614.69;;;10.62;100.00
58243;BME280;50118;53.232;8.252;2022-11-04T14:50:25;100624.22;;;10.55;100.00
58243;BME280;50118;53.232;8.252;2022-11-04T14:53:15;100618.06;;;10.55;100.00
58243;BME280;50118;53.232;8.252;2022-11-04T14:55:45;100626.59;;;10.58;100.00
58243;BME280;50118;53.232;8.252;2022-11-04T14:58:28;100633.09;;;10.56;100.00
58243;BME280;50118;53.232;8.252;2022-11-04T15:01:00;100644.41;;;10.58;100.00
58243;BME280;50118;53.232;8.252;2022-11-04T15:03:32;100634.56;;;10.68;100.00
58243;BME280;50118;53.232;8.252;2022-11-04T15:06:01;100642.84;;;10.65;100.00
58243;BME280;50118;53.232;8.252;2022-11-04T15:13:44;100660.28;;;10.77;100.00
58243;BME280;50118;53.232;8.252;2022-11-04T15:16:15;100656.94;;;10.75;100.00
58243;BME280;50118;53.232;8.252;2022-11-04T15:19:13;100667.88;;;10.72;100.00
58243;BME280;50118;53.232;8.252;2022-11-04T15:21:45;100668.50;;;10.66;100.00
58243;BME280;50118;53.232;8.252;2022-11-04T15:24:16;100679.16;;;10.66;100.00
58243;BME280;50118;53.232;8.252;2022-11-04T15:26:42;100671.75;;;10.60;100.00
58243;BME280;50118;53.232;8.252;2022-11-04T15:29:10;100670.94;;;10.50;100.00
58243;BME280;50118;53.232;8.252;2022-11-04T15:31:38;100679.81;;;10.40;100.00
58243;BME280;50118;53.232;8.252;2022-11-04T15:34:15;100687.94;;;10.29;100.00
58243;BME280;50118;53.232;8.252;2022-11-04T15:36:49;100694.69;;;10.14;100.00
58243;BME280;50118;53.232;8.252;2022-11-04T15:39:21;100696.69;;;10.02;100.00